GMAD/AGA METAR and TAF weather

Enter ICAO airport designator
Station Type Date Time Source
GMAD METAR 2022/06/28 23:30 UTC NOAA

GMAD 282330Z 21004KT 8000 NSC 19/15 Q1016 NOSIG


Station Type Date Time Source
GMAD Decoded METAR 2022/06/28 23:30 UTC NOAA

Agadir Al Massira, Morocco (GMAD) 30-20N 009-24W 74M
Jun 28, 2022 - 07:30 PM EDT / 2022.06.28 2330 UTC
Wind: from the SSW (210 degrees) at 5 MPH (4 KT):0
Visibility: 4 mile(s):0
Temperature: 66 F (19 C)
Dew Point: 59 F (15 C)
Relative Humidity: 77%
Pressure (altimeter): 30.00 in. Hg (1016 hPa)
ob: GMAD 282330Z 21004KT 8000 NSC 19/15 Q1016 NOSIG
cycle: 23

Station Type Date Time Source
GMAD TAF 2022/06/28 18:18 UTC NOAA

TAF TAF GMAD 281700Z 2818/2924 22017KT CAVOK
BECMG 2820/2822 10006KT

Example: see airport list